Time;durP1;ratioP1;P1;durP2;ratioP2;P2;SDS_P1;SDS_P2;PMS_P1;PMS_P2;Temp;Humidity;BMP_temperature;BMP_pressure;BME280_temperature;BME280_humidity;BME280_pressure;Samples;Min_cycle;Max_cycle;Signal;HPM_P1;HPM_P2
2021/12/25 00:01:40;;;;;;;8.68;6.00;;;8.80;99.90;;;;;;4904606;28;20053;-78
2021/12/25 00:04:09;;;;;;;9.10;5.85;;;8.80;99.90;;;;;;4906034;29;20033;-78
2021/12/25 00:06:35;;;;;;;10.32;6.53;;;8.80;99.90;;;;;;4904304;28;20020;-80
2021/12/25 00:09:05;;;;;;;8.55;5.68;;;8.90;99.90;;;;;;4905473;29;20036;-78
2021/12/25 00:12:21;;;;;;;10.32;5.70;;;8.90;99.90;;;;;;4905574;29;20032;-79
2021/12/25 00:18:40;;;;;;;9.67;5.80;;;9.00;99.90;;;;;;4875280;28;20073;-79
2021/12/25 00:22:00;;;;;;;;;;;;;;;;;;;;;
2021/12/25 00:34:23;;;;;;;10.43;6.40;;;9.00;99.90;;;;;;4915016;29;20036;-79
2021/12/25 00:37:10;;;;;;;10.88;6.22;;;9.10;99.90;;;;;;4944199;29;20040;-79
2021/12/25 00:40:22;;;;;;;9.10;6.00;;;9.10;99.90;;;;;;4913886;29;20054;-78
2021/12/25 00:47:03;;;;;;;9.57;6.25;;;9.10;99.90;;;;;;4890559;29;20082;-79
2021/12/25 00:50:17;;;;;;;9.80;6.07;;;9.10;99.90;;;;;;4878023;29;20276;-79
2021/12/25 00:53:03;;;;;;;8.95;5.88;;;9.10;99.90;;;;;;4881201;29;20105;-78
2021/12/25 00:56:19;;;;;;;8.90;6.05;;;9.10;99.90;;;;;;4890945;29;20065;-79
2021/12/25 01:06:35;;;;;;;9.23;5.72;;;9.10;99.90;;;;;;4891530;29;20044;-78
2021/12/25 01:09:21;;;;;;;9.45;6.10;;;9.10;99.90;;;;;;4866570;29;20033;-79
2021/12/25 01:11:50;;;;;;;9.23;6.28;;;9.10;99.90;;;;;;4850264;29;20068;-77
2021/12/25 01:14:49;;;;;;;10.90;6.82;;;9.10;99.90;;;;;;4849632;29;20056;-77
2021/12/25 01:25:47;;;;;;;10.93;7.13;;;8.90;99.90;;;;;;4884726;29;20048;-77
2021/12/25 01:39:42;;;;;;;9.23;6.18;;;8.80;99.90;;;;;;4887162;28;20131;-79
2021/12/25 01:48:15;;;;;;;11.38;7.40;;;8.80;99.90;;;;;;4887338;28;20056;-79
2021/12/25 01:50:42;;;;;;;9.90;6.70;;;8.80;99.90;;;;;;4885256;29;20033;-80
2021/12/25 01:53:08;;;;;;;8.38;6.20;;;8.80;99.90;;;;;;4900392;29;20069;-79
2021/12/25 01:55:33;;;;;;;12.45;7.10;;;8.80;99.90;;;;;;4900444;29;20037;-79
2021/12/25 01:58:01;;;;;;;11.25;7.05;;;8.80;99.90;;;;;;4900595;29;20279;-79
2021/12/25 02:00:37;;;;;;;12.25;7.10;;;8.80;99.90;;;;;;4898751;28;20063;-79
2021/12/25 02:03:06;;;;;;;9.68;6.75;;;8.80;99.90;;;;;;4883811;29;20116;-79
2021/12/25 02:05:32;;;;;;;;;;;8.80;99.90;;;;;;4884535;29;20033;-79
2021/12/25 02:07:58;;;;;;;11.50;7.10;;;8.80;99.90;;;;;;4883477;29;19930;-78
2021/12/25 02:10:24;;;;;;;12.07;7.57;;;8.80;99.90;;;;;;4884163;29;20359;-79
2021/12/25 02:12:51;;;;;;;11.75;7.80;;;8.70;99.90;;;;;;4886884;29;20052;-79
2021/12/25 02:15:21;;;;;;;11.68;7.70;;;8.70;99.90;;;;;;4887093;29;20033;-79
2021/12/25 02:23:24;;;;;;;11.27;7.28;;;8.60;99.90;;;;;;4887319;29;20048;-78
2021/12/25 02:25:54;;;;;;;11.40;6.97;;;8.60;99.90;;;;;;4902119;28;20390;-80
2021/12/25 02:28:21;;;;;;;11.68;7.20;;;8.60;99.90;;;;;;4902497;28;20116;-79
2021/12/25 02:30:52;;;;;;;11.02;6.82;;;8.60;99.90;;;;;;4901985;29;20029;-79
2021/12/25 02:33:18;;;;;;;10.20;6.60;;;8.60;99.90;;;;;;4902442;28;20068;-79
2021/12/25 02:35:44;;;;;;;9.70;6.18;;;8.70;99.90;;;;;;4902714;28;20041;-79
2021/12/25 02:38:12;;;;;;;13.20;8.00;;;8.70;99.90;;;;;;4891210;29;20052;-80
2021/12/25 02:40:38;;;;;;;14.05;8.32;;;8.60;99.90;;;;;;4906533;28;20234;-80
2021/12/25 02:43:04;;;;;;;15.48;8.50;;;8.70;99.90;;;;;;4906006;29;20036;-80
2021/12/25 02:45:30;;;;;;;14.32;8.27;;;8.60;99.90;;;;;;4906464;29;20033;-79
2021/12/25 02:47:57;;;;;;;10.80;7.32;;;8.50;99.90;;;;;;4906251;29;20027;-80
2021/12/25 02:50:26;;;;;;;13.80;7.72;;;8.40;99.90;;;;;;4906680;29;20219;-80
2021/12/25 02:52:55;;;;;;;13.07;7.47;;;8.50;99.90;;;;;;4906091;29;20078;-80
2021/12/25 02:55:22;;;;;;;10.07;6.78;;;8.50;99.90;;;;;;4906228;28;20033;-80
2021/12/25 02:57:51;;;;;;;12.70;6.93;;;8.50;99.90;;;;;;4889687;29;20056;-79
2021/12/25 03:00:20;;;;;;;10.48;7.20;;;8.50;99.90;;;;;;4891276;28;20174;-79
2021/12/25 03:02:46;;;;;;;11.50;7.20;;;8.40;99.90;;;;;;4902544;29;20044;-80
2021/12/25 03:05:12;;;;;;;10.68;6.88;;;8.40;99.90;;;;;;4903007;29;20045;-78
2021/12/25 03:07:37;;;;;;;11.43;6.93;;;8.40;99.90;;;;;;4903052;28;20029;-78
2021/12/25 03:10:05;;;;;;;11.50;7.00;;;8.40;99.90;;;;;;4886832;29;20204;-79
2021/12/25 03:12:38;;;;;;;11.55;6.57;;;8.40;99.90;;;;;;4887077;29;20128;-78
2021/12/25 03:15:12;;;;;;;11.27;6.97;;;8.40;99.90;;;;;;4902255;29;20037;-79
2021/12/25 03:17:38;;;;;;;9.98;6.72;;;8.40;99.90;;;;;;4902499;29;20033;-78
2021/12/25 03:20:07;;;;;;;11.18;6.68;;;8.40;99.90;;;;;;4894841;29;20040;-78
2021/12/25 03:22:34;;;;;;;9.25;6.05;;;8.40;99.90;;;;;;4904555;29;20021;-78
2021/12/25 03:24:59;;;;;;;10.32;5.95;;;8.40;99.90;;;;;;4904999;29;20346;-79
2021/12/25 03:27:27;;;;;;;11.10;6.40;;;8.50;99.90;;;;;;4921495;29;20278;-78
2021/12/25 03:29:53;;;;;;;11.25;7.25;;;8.50;99.90;;;;;;4905343;29;20040;-78
2021/12/25 03:32:19;;;;;;;11.23;6.90;;;8.50;99.90;;;;;;4905501;29;20196;-78
2021/12/25 03:34:44;;;;;;;9.88;6.22;;;8.50;99.90;;;;;;4905350;29;20032;-78
2021/12/25 03:37:10;;;;;;;9.57;7.10;;;8.50;99.90;;;;;;4906528;29;20087;-78
2021/12/25 03:39:36;;;;;;;12.60;7.20;;;8.60;99.90;;;;;;4906199;29;20316;-78
2021/12/25 03:42:02;;;;;;;10.27;6.88;;;8.60;99.90;;;;;;4905395;29;20024;-78
2021/12/25 03:44:29;;;;;;;9.57;6.50;;;8.60;99.90;;;;;;4906453;29;20029;-78
2021/12/25 03:47:00;;;;;;;12.55;7.15;;;8.60;99.90;;;;;;4905055;29;20036;-78
2021/12/25 03:49:34;;;;;;;16.63;7.88;;;8.60;99.90;;;;;;4905347;28;20108;-78
2021/12/25 03:57:48;;;;;;;8.10;5.43;;;8.60;99.90;;;;;;4908901;29;20052;-78
2021/12/25 04:00:16;;;;;;;8.93;5.22;;;8.60;99.90;;;;;;4933346;28;20052;-78
2021/12/25 04:02:56;;;;;;;7.43;4.45;;;8.60;99.90;;;;;;4918494;28;20104;-79
2021/12/25 04:05:44;;;;;;;7.40;4.10;;;8.60;99.90;;;;;;4905787;29;20264;-78
2021/12/25 04:08:13;;;;;;;7.60;3.97;;;8.60;99.90;;;;;;4905983;29;20274;-78
2021/12/25 04:10:43;;;;;;;6.10;3.13;;;8.70;99.90;;;;;;4905574;29;20047;-78
2021/12/25 04:13:15;;;;;;;6.50;2.88;;;8.70;99.90;;;;;;4905309;29;20466;-78
2021/12/25 04:15:43;;;;;;;5.78;2.70;;;8.70;99.90;;;;;;4906777;28;20211;-78
2021/12/25 04:18:09;;;;;;;4.75;2.80;;;8.70;99.90;;;;;;4888949;29;20053;-78
2021/12/25 04:20:36;;;;;;;5.82;3.05;;;8.70;99.90;;;;;;4905147;29;20071;-79
2021/12/25 04:23:10;;;;;;;4.75;3.03;;;8.70;99.90;;;;;;4892037;29;20017;-78
2021/12/25 04:25:39;;;;;;;6.00;3.90;;;8.70;99.90;;;;;;4887156;29;20029;-78
2021/12/25 04:28:20;;;;;;;7.85;5.15;;;8.70;99.90;;;;;;4886709;29;20037;-79
2021/12/25 04:31:23;;;;;;;8.80;4.88;;;8.70;99.90;;;;;;4901890;29;20036;-79
2021/12/25 04:48:29;;;;;;;9.65;5.45;;;8.40;99.90;;;;;;4885796;28;20033;-77
2021/12/25 05:04:41;;;;;;;9.40;4.53;;;8.30;99.90;;;;;;4876770;29;20079;-78
2021/12/25 05:07:15;;;;;;;7.65;4.70;;;8.30;99.90;;;;;;4885041;29;20040;-79
2021/12/25 05:09:41;;;;;;;7.10;4.60;;;8.30;99.90;;;;;;4885286;29;20036;-78
2021/12/25 05:12:07;;;;;;;6.13;4.07;;;8.30;99.90;;;;;;4886005;29;20096;-79
2021/12/25 05:14:34;;;;;;;8.70;4.80;;;8.30;99.90;;;;;;4900710;28;20361;-79
2021/12/25 05:17:01;;;;;;;9.73;4.20;;;8.30;99.90;;;;;;4885179;29;20095;-78
2021/12/25 05:19:27;;;;;;;7.32;4.13;;;8.30;99.90;;;;;;4885551;29;20259;-79
2021/12/25 05:21:53;;;;;;;6.63;3.55;;;8.30;99.90;;;;;;4886778;29;20028;-78
2021/12/25 05:24:21;;;;;;;6.60;4.10;;;8.30;99.90;;;;;;4908857;29;20055;-78
2021/12/25 05:26:56;;;;;;;7.10;4.03;;;8.30;99.90;;;;;;4919837;28;20063;-78
2021/12/25 05:29:24;;;;;;;5.78;3.60;;;8.40;99.90;;;;;;4888088;28;20087;-79
2021/12/25 05:31:51;;;;;;;7.55;4.47;;;8.40;99.90;;;;;;4904252;29;20056;-79
2021/12/25 05:34:42;;;;;;;7.30;4.25;;;8.40;99.90;;;;;;4904601;29;20111;-79
2021/12/25 05:37:28;;;;;;;6.50;4.10;;;8.50;99.90;;;;;;4905226;29;20282;-79
2021/12/25 05:40:12;;;;;;;7.22;4.05;;;8.50;99.90;;;;;;4903725;29;20061;-79
2021/12/25 05:42:42;;;;;;;9.40;4.25;;;8.40;99.90;;;;;;4904134;29;20315;-79
2021/12/25 05:45:10;;;;;;;7.13;3.85;;;8.40;99.90;;;;;;4914488;29;20067;-79
2021/12/25 05:47:55;;;;;;;7.00;4.05;;;8.40;99.90;;;;;;4903872;29;20374;-78
2021/12/25 05:50:41;;;;;;;7.25;3.97;;;8.40;99.90;;;;;;4904396;28;20083;-78
2021/12/25 05:53:36;;;;;;;5.47;3.67;;;8.40;99.90;;;;;;4891572;28;20040;-78
2021/12/25 05:56:05;;;;;;;6.13;3.90;;;8.40;99.90;;;;;;4904372;29;20353;-78
2021/12/25 05:58:45;;;;;;;7.28;3.85;;;8.30;99.90;;;;;;4919330;29;20254;-78
2021/12/25 06:01:20;;;;;;;5.75;3.60;;;8.40;99.90;;;;;;4901986;28;20033;-78
2021/12/25 06:03:46;;;;;;;5.10;3.10;;;8.40;99.90;;;;;;4904655;29;20097;-78
2021/12/25 06:06:12;;;;;;;6.28;3.55;;;8.40;99.90;;;;;;4899273;29;20025;-79
2021/12/25 06:08:38;;;;;;;5.13;3.22;;;8.40;99.90;;;;;;4885834;29;20028;-79
2021/12/25 06:11:04;;;;;;;4.90;2.95;;;8.40;99.90;;;;;;4899229;29;20048;-79
2021/12/25 06:13:30;;;;;;;5.80;3.30;;;8.40;99.90;;;;;;4903135;29;20029;-79
2021/12/25 06:15:57;;;;;;;5.18;3.33;;;8.40;99.90;;;;;;4887022;28;20099;-80
2021/12/25 06:18:43;;;;;;;5.82;3.10;;;8.40;99.90;;;;;;4904373;28;20052;-79
2021/12/25 06:21:19;;;;;;;5.68;3.67;;;8.40;99.90;;;;;;4888776;29;20025;-79
2021/12/25 06:24:13;;;;;;;7.35;4.05;;;8.40;99.90;;;;;;4902988;28;20096;-79
2021/12/25 06:26:45;;;;;;;7.13;3.92;;;8.40;99.90;;;;;;4898712;29;20029;-79
2021/12/25 06:29:20;;;;;;;8.48;4.22;;;8.40;99.90;;;;;;4885467;29;20218;-79
2021/12/25 06:31:57;;;;;;;6.68;4.30;;;8.40;99.90;;;;;;4899593;29;20060;-79
2021/12/25 06:34:42;;;;;;;6.97;4.40;;;8.40;99.90;;;;;;4885577;29;20041;-78
2021/12/25 06:37:18;;;;;;;6.90;4.32;;;8.40;99.90;;;;;;4903652;29;20036;-79
2021/12/25 06:40:21;;;;;;;8.77;5.22;;;8.30;99.90;;;;;;4945867;28;20041;-79
2021/12/25 06:42:47;;;;;;;7.65;5.15;;;8.40;99.90;;;;;;4887528;28;20100;-79
2021/12/25 06:45:13;;;;;;;9.40;5.47;;;8.40;99.90;;;;;;4902180;28;20033;-78
2021/12/25 06:47:40;;;;;;;9.40;5.60;;;8.30;99.90;;;;;;4883890;28;20025;-79
2021/12/25 06:50:11;;;;;;;8.80;5.70;;;8.30;99.90;;;;;;4884236;29;20104;-79
2021/12/25 06:53:03;;;;;;;8.85;5.43;;;8.40;99.90;;;;;;4881699;29;20033;-79
2021/12/25 06:55:50;;;;;;;10.25;5.53;;;8.40;99.90;;;;;;4887038;28;20056;-78
2021/12/25 06:58:33;;;;;;;10.20;6.13;;;8.40;99.90;;;;;;4888717;29;20375;-78
2021/12/25 07:00:59;;;;;;;9.18;6.35;;;8.40;99.90;;;;;;4886549;28;20060;-79
2021/12/25 07:03:27;;;;;;;9.95;6.55;;;8.40;99.90;;;;;;4872283;29;20037;-79
2021/12/25 07:06:31;;;;;;;10.15;6.05;;;8.40;99.90;;;;;;4868315;29;20264;-78
2021/12/25 07:09:15;;;;;;;10.60;6.32;;;8.30;99.90;;;;;;4881730;29;20098;-79
2021/12/25 07:12:02;;;;;;;10.68;5.85;;;8.30;99.90;;;;;;4904143;28;20036;-79
2021/12/25 07:14:52;;;;;;;10.27;6.20;;;8.40;99.90;;;;;;4905634;28;20039;-78
2021/12/25 07:17:41;;;;;;;10.18;6.30;;;8.40;99.90;;;;;;4905281;28;20040;-78
2021/12/25 07:20:37;;;;;;;9.10;5.65;;;8.40;99.90;;;;;;4905580;28;20037;-79
2021/12/25 07:23:16;;;;;;;8.57;4.80;;;8.60;99.90;;;;;;4905227;28;20044;-79
2021/12/25 07:25:55;;;;;;;8.93;4.60;;;8.70;99.90;;;;;;4905527;28;20025;-78
2021/12/25 07:28:45;;;;;;;7.18;4.00;;;8.80;99.90;;;;;;4901973;28;20068;-79
2021/12/25 07:31:11;;;;;;;8.30;4.40;;;9.00;99.90;;;;;;4887239;28;20045;-78
2021/12/25 07:33:37;;;;;;;7.50;4.10;;;9.00;99.90;;;;;;4887888;29;20048;-78
2021/12/25 07:36:03;;;;;;;7.10;4.32;;;9.10;99.90;;;;;;4902188;28;20051;-77
2021/12/25 07:38:29;;;;;;;7.30;4.57;;;9.20;99.90;;;;;;4886816;29;20041;-77
2021/12/25 07:40:55;;;;;;;6.93;3.83;;;9.10;99.90;;;;;;4887851;29;20096;-78
2021/12/25 07:43:21;;;;;;;7.45;3.67;;;9.10;99.90;;;;;;4887399;29;20053;-78
2021/12/25 07:46:01;;;;;;;6.65;3.85;;;9.20;99.90;;;;;;4887426;28;20041;-78
2021/12/25 07:48:27;;;;;;;7.30;3.63;;;9.20;99.90;;;;;;4870827;28;20040;-78
2021/12/25 07:50:54;;;;;;;6.43;3.42;;;9.20;99.90;;;;;;4902307;29;20099;-79
2021/12/25 07:53:20;;;;;;;6.78;3.45;;;9.30;99.90;;;;;;4904927;29;20299;-79
2021/12/25 07:55:50;;;;;;;6.50;3.30;;;9.30;99.90;;;;;;4904926;29;20036;-78
2021/12/25 07:58:19;;;;;;;5.55;3.60;;;9.30;99.90;;;;;;4919829;29;20054;-79
2021/12/25 08:00:45;;;;;;;6.38;3.95;;;9.40;99.90;;;;;;4888920;29;20227;-79
2021/12/25 08:03:11;;;;;;;5.38;3.58;;;9.40;99.90;;;;;;4921681;29;20165;-78
2021/12/25 08:05:37;;;;;;;7.07;3.67;;;9.40;99.90;;;;;;4906456;29;20024;-78
2021/12/25 08:08:04;;;;;;;7.05;3.60;;;9.40;99.90;;;;;;4905298;29;20272;-79
2021/12/25 08:10:31;;;;;;;6.25;3.35;;;9.40;99.90;;;;;;4915605;29;20083;-79
2021/12/25 08:12:58;;;;;;;5.63;3.05;;;9.40;99.90;;;;;;4904625;29;20103;-79
2021/12/25 08:15:26;;;;;;;5.93;3.50;;;9.40;99.90;;;;;;4900544;28;20053;-79
2021/12/25 08:17:54;;;;;;;7.75;3.78;;;9.40;99.90;;;;;;4899571;29;20056;-78
2021/12/25 08:20:46;;;;;;;6.38;3.50;;;9.40;99.90;;;;;;4872071;29;20037;-79
2021/12/25 08:23:35;;;;;;;6.68;3.75;;;9.40;99.90;;;;;;4887156;28;20236;-79
2021/12/25 08:26:19;;;;;;;6.18;3.92;;;9.40;99.90;;;;;;4886472;29;20084;-80
2021/12/25 08:29:11;;;;;;;7.20;3.58;;;9.50;99.90;;;;;;4884045;29;20044;-78
2021/12/25 08:31:55;;;;;;;6.53;4.00;;;9.50;99.90;;;;;;4898674;28;20109;-79
2021/12/25 08:34:42;;;;;;;7.95;4.53;;;9.50;99.90;;;;;;4897606;29;20114;-78
2021/12/25 08:37:12;;;;;;;6.68;3.63;;;9.50;99.90;;;;;;4903976;29;20330;-78
2021/12/25 08:39:38;;;;;;;7.35;3.72;;;9.50;99.90;;;;;;4905298;29;20037;-79
2021/12/25 08:42:05;;;;;;;6.90;4.10;;;9.60;99.90;;;;;;4904344;29;20176;-79
2021/12/25 08:44:37;;;;;;;6.72;3.80;;;9.60;99.90;;;;;;4905522;29;20040;-79
2021/12/25 08:47:09;;;;;;;6.90;3.38;;;9.70;99.90;;;;;;4887993;29;20045;-79
2021/12/25 08:49:36;;;;;;;6.15;3.70;;;9.70;99.90;;;;;;4905477;29;20075;-80
2021/12/25 08:52:06;;;;;;;8.30;3.70;;;9.80;99.90;;;;;;4905154;29;20063;-79
2021/12/25 08:54:33;;;;;;;6.00;3.28;;;9.90;99.90;;;;;;4904198;28;20051;-79
2021/12/25 08:57:00;;;;;;;6.53;3.60;;;9.80;99.90;;;;;;4904063;29;20048;-79
2021/12/25 08:59:27;;;;;;;6.38;3.90;;;9.90;99.90;;;;;;4903835;29;20211;-79
2021/12/25 09:01:53;;;;;;;6.22;3.78;;;10.00;99.90;;;;;;4904940;28;20063;-80
2021/12/25 09:04:22;;;;;;;8.38;4.43;;;10.00;99.90;;;;;;4903758;29;20036;-81
2021/12/25 09:06:49;;;;;;;6.00;3.80;;;10.00;99.90;;;;;;4904599;29;20031;-78
2021/12/25 09:09:14;;;;;;;5.95;3.60;;;10.10;99.90;;;;;;4919244;28;20068;-79
2021/12/25 09:11:41;;;;;;;6.80;3.97;;;10.10;99.90;;;;;;4904505;29;20079;-78
2021/12/25 09:14:07;;;;;;;6.18;3.42;;;10.10;99.90;;;;;;4903807;28;20082;-79
2021/12/25 09:16:33;;;;;;;6.50;3.70;;;10.00;99.90;;;;;;4902539;28;20046;-78
2021/12/25 09:19:00;;;;;;;5.07;3.00;;;10.00;99.90;;;;;;4901665;28;20040;-81
2021/12/25 09:21:26;;;;;;;6.93;3.30;;;10.00;99.90;;;;;;4901894;28;20080;-79
2021/12/25 09:23:54;;;;;;;6.45;2.90;;;10.00;99.90;;;;;;4904534;29;20043;-79
2021/12/25 09:26:20;;;;;;;5.28;3.67;;;10.00;99.90;;;;;;4903991;29;20188;-78
2021/12/25 09:28:46;;;;;;;6.80;3.13;;;10.00;99.90;;;;;;4904566;29;20036;-79
2021/12/25 09:31:13;;;;;;;5.45;3.28;;;10.00;99.90;;;;;;4902476;28;20091;-79
2021/12/25 09:33:39;;;;;;;14.52;7.07;;;10.00;99.90;;;;;;4903643;28;20056;-79
2021/12/25 09:36:06;;;;;;;22.73;9.73;;;10.00;99.90;;;;;;4894877;28;20084;-80
2021/12/25 09:38:34;;;;;;;26.92;12.80;;;10.00;99.90;;;;;;4885487;29;20045;-79
2021/12/25 09:41:01;;;;;;;29.67;13.85;;;9.90;99.90;;;;;;4885780;29;20025;-79
2021/12/25 09:43:28;;;;;;;6.40;3.10;;;9.90;99.90;;;;;;4885414;29;20030;-79
2021/12/25 09:45:54;;;;;;;12.30;6.60;;;10.00;99.90;;;;;;4885440;28;20161;-80
2021/12/25 09:48:21;;;;;;;7.30;3.53;;;10.10;99.90;;;;;;4899808;29;20041;-79
2021/12/25 09:50:47;;;;;;;12.60;6.80;;;10.20;99.90;;;;;;4885463;29;20029;-80
2021/12/25 09:53:15;;;;;;;10.32;5.20;;;10.30;99.90;;;;;;4900830;29;20031;-78
2021/12/25 09:55:42;;;;;;;5.53;2.85;;;10.30;99.90;;;;;;4903299;29;20024;-78
2021/12/25 09:58:08;;;;;;;10.63;5.40;;;10.30;99.90;;;;;;4899116;28;20260;-77
2021/12/25 10:00:36;;;;;;;5.78;3.42;;;10.30;99.90;;;;;;4884541;29;20068;-78
2021/12/25 10:03:02;;;;;;;;;;;10.40;99.90;;;;;;4886312;29;20033;-78
2021/12/25 10:05:32;;;;;;;4.88;2.60;;;10.40;99.90;;;;;;4884991;29;19915;-78
2021/12/25 10:08:23;;;;;;;29.08;14.20;;;10.50;99.90;;;;;;4885756;28;20025;-78
2021/12/25 10:10:54;;;;;;;5.28;3.00;;;10.60;99.90;;;;;;4887437;29;20029;-79
2021/12/25 10:13:23;;;;;;;9.93;5.32;;;10.60;99.90;;;;;;4902773;28;20025;-79
2021/12/25 10:15:51;;;;;;;5.93;3.08;;;10.70;99.90;;;;;;4903488;28;20045;-79
2021/12/25 10:18:26;;;;;;;4.55;2.40;;;10.80;99.90;;;;;;4908049;28;20067;-80
2021/12/25 10:20:52;;;;;;;4.90;2.33;;;11.00;99.90;;;;;;4892810;28;20034;-78
2021/12/25 10:23:25;;;;;;;7.50;3.72;;;11.20;99.90;;;;;;4913608;28;20061;-79
2021/12/25 10:25:59;;;;;;;7.53;4.10;;;11.20;99.90;;;;;;4918097;28;20088;-78
2021/12/25 10:28:28;;;;;;;5.43;2.30;;;11.40;99.90;;;;;;4868672;29;20232;-78
2021/12/25 10:31:08;;;;;;;8.93;3.58;;;11.50;99.90;;;;;;4884835;28;20064;-78
2021/12/25 10:33:38;;;;;;;4.50;2.00;;;11.50;99.90;;;;;;4887277;29;20025;-78
2021/12/25 10:36:10;;;;;;;9.50;4.00;;;11.50;99.90;;;;;;4887305;29;20362;-78
2021/12/25 10:38:38;;;;;;;8.95;3.58;;;11.50;99.90;;;;;;4894432;28;20100;-78
2021/12/25 10:41:14;;;;;;;3.87;1.50;;;11.60;99.90;;;;;;4906342;29;20035;-77
2021/12/25 10:43:42;;;;;;;2.63;1.42;;;11.60;99.90;;;;;;4906151;29;20033;-78
2021/12/25 10:46:09;;;;;;;3.70;1.73;;;11.70;99.90;;;;;;4905353;28;20056;-77
2021/12/25 10:48:35;;;;;;;3.42;1.50;;;11.70;99.90;;;;;;4907001;29;20037;-78
2021/12/25 10:51:01;;;;;;;7.57;3.10;;;11.90;99.90;;;;;;4906045;29;20033;-80
2021/12/25 10:53:34;;;;;;;4.93;1.77;;;11.90;99.90;;;;;;4906329;29;20048;-79
2021/12/25 10:56:12;;;;;;;3.25;1.58;;;12.00;99.90;;;;;;4906023;29;20033;-78
2021/12/25 10:58:39;;;;;;;;;;;12.10;99.90;;;;;;4901496;29;20050;-77
2021/12/25 11:01:10;;;;;;;3.65;1.60;;;12.20;99.90;;;;;;4905582;28;19919;-78
2021/12/25 11:03:40;;;;;;;2.83;0.98;;;12.30;99.90;;;;;;4906096;28;20064;-79
2021/12/25 11:06:09;;;;;;;2.63;1.08;;;12.30;99.90;;;;;;4906802;29;20044;-79
2021/12/25 11:08:37;;;;;;;3.78;1.40;;;12.50;99.90;;;;;;4905332;29;20071;-78
2021/12/25 11:11:18;;;;;;;1.80;0.80;;;12.70;99.90;;;;;;4906466;29;20100;-78
2021/12/25 11:13:50;;;;;;;1.88;0.98;;;12.80;99.90;;;;;;4906405;29;20028;-81
2021/12/25 11:16:27;;;;;;;2.90;0.80;;;13.00;99.90;;;;;;4904364;28;20048;-80
2021/12/25 11:21:54;;;;;;;3.13;1.20;;;13.00;99.90;;;;;;4899088;29;20041;-79
2021/12/25 11:24:36;;;;;;;2.92;0.88;;;13.00;99.90;;;;;;4892494;28;20148;-78
2021/12/25 11:27:06;;;;;;;1.77;0.70;;;13.10;99.90;;;;;;4900141;29;20036;-78
2021/12/25 11:29:35;;;;;;;1.50;0.70;;;13.10;99.90;;;;;;4905069;29;20016;-78
2021/12/25 11:32:03;;;;;;;2.50;0.73;;;13.30;99.90;;;;;;4906731;28;20068;-78
2021/12/25 11:34:30;;;;;;;1.58;0.70;;;13.30;99.90;;;;;;4906008;29;20043;-77
2021/12/25 11:36:57;;;;;;;1.60;0.73;;;13.20;99.90;;;;;;4907374;29;20048;-79
2021/12/25 11:39:25;;;;;;;2.33;0.98;;;13.20;99.90;;;;;;4907111;29;20045;-78
2021/12/25 11:42:00;;;;;;;1.35;0.50;;;12.90;99.90;;;;;;4904749;28;20307;-78
2021/12/25 11:44:39;;;;;;;2.63;0.75;;;12.80;99.90;;;;;;4904794;29;20032;-78
2021/12/25 11:47:06;;;;;;;;;;;12.60;99.90;;;;;;4906379;29;20430;-78
2021/12/25 11:49:32;;;;;;;3.03;1.30;;;12.60;99.90;;;;;;4905011;28;19950;-78
2021/12/25 11:52:19;;;;;;;1.98;0.82;;;12.50;99.90;;;;;;4907387;29;20024;-78
2021/12/25 11:55:11;;;;;;;3.05;0.90;;;12.50;99.90;;;;;;4907027;29;20032;-79
2021/12/25 11:58:00;;;;;;;2.03;1.10;;;12.40;99.90;;;;;;4905622;28;20219;-79
2021/12/25 12:00:48;;;;;;;2.95;0.73;;;12.30;99.90;;;;;;4904061;28;20063;-79
2021/12/25 12:03:38;;;;;;;3.65;1.00;;;12.40;99.90;;;;;;4904945;29;20029;-79
2021/12/25 12:06:05;;;;;;;2.08;0.55;;;12.30;99.90;;;;;;4894364;29;20052;-78
2021/12/25 12:08:53;;;;;;;2.97;0.85;;;12.20;99.90;;;;;;4886817;29;20039;-79
2021/12/25 12:12:09;;;;;;;2.00;0.93;;;12.10;99.90;;;;;;4885948;28;20025;-79
2021/12/25 12:15:15;;;;;;;3.50;1.15;;;12.00;99.90;;;;;;4885840;29;20109;-78
2021/12/25 12:18:25;;;;;;;2.47;0.90;;;12.00;99.90;;;;;;4915697;29;20049;-79
2021/12/25 12:20:57;;;;;;;3.67;1.23;;;11.90;99.90;;;;;;4885858;29;20033;-79
2021/12/25 12:23:43;;;;;;;1.63;0.77;;;11.80;99.90;;;;;;4887552;28;20072;-78
2021/12/25 12:26:13;;;;;;;3.58;1.13;;;11.80;99.90;;;;;;4901499;29;20266;-78
2021/12/25 12:28:45;;;;;;;3.92;1.20;;;11.80;99.90;;;;;;4886931;29;20037;-78
2021/12/25 12:31:34;;;;;;;1.92;0.80;;;11.70;99.90;;;;;;4886532;28;20092;-78
2021/12/25 12:33:59;;;;;;;;;;;11.60;99.90;;;;;;4886441;29;20048;-79
2021/12/25 12:36:27;;;;;;;1.90;0.77;;;11.50;99.90;;;;;;4900677;29;19908;-78
2021/12/25 12:39:13;;;;;;;3.00;1.03;;;11.40;99.90;;;;;;4901401;29;20044;-78
2021/12/25 12:41:50;;;;;;;3.20;1.27;;;11.30;99.90;;;;;;4901060;29;20324;-79
2021/12/25 12:44:31;;;;;;;3.15;1.23;;;11.30;99.90;;;;;;4889861;29;20045;-78
2021/12/25 12:47:04;;;;;;;2.33;1.02;;;11.30;99.90;;;;;;4886163;28;20057;-79
2021/12/25 12:49:39;;;;;;;3.45;1.13;;;11.30;99.90;;;;;;4885968;29;20072;-78
2021/12/25 12:52:26;;;;;;;3.28;1.20;;;11.20;99.90;;;;;;4885378;28;20052;-78
2021/12/25 12:54:54;;;;;;;3.60;1.27;;;11.20;99.90;;;;;;4900704;29;20033;-79
2021/12/25 12:57:22;;;;;;;4.70;1.90;;;11.10;99.90;;;;;;4886591;29;20045;-78
2021/12/25 12:59:50;;;;;;;4.88;1.67;;;11.10;99.90;;;;;;4886427;29;20040;-78
2021/12/25 13:02:18;;;;;;;2.95;1.35;;;11.10;99.90;;;;;;4885844;29;20335;-80
2021/12/25 13:04:47;;;;;;;4.73;1.57;;;11.10;99.90;;;;;;4895813;29;20037;-80
2021/12/25 13:07:16;;;;;;;2.50;1.20;;;11.10;99.90;;;;;;4900998;28;20239;-80
2021/12/25 13:09:50;;;;;;;2.75;1.15;;;11.10;99.90;;;;;;4891133;29;20051;-79
2021/12/25 13:12:30;;;;;;;2.42;1.25;;;11.10;99.90;;;;;;4904874;28;20025;-79
2021/12/25 13:15:02;;;;;;;3.00;1.42;;;11.10;99.90;;;;;;4888341;29;20043;-80
2021/12/25 13:17:28;;;;;;;3.30;1.42;;;11.00;99.90;;;;;;4902903;29;20338;-80
2021/12/25 13:19:54;;;;;;;4.13;1.65;;;11.10;99.90;;;;;;4904543;29;20040;-79
2021/12/25 13:22:20;;;;;;;3.45;1.90;;;11.00;99.90;;;;;;4903883;29;20029;-79
2021/12/25 13:24:52;;;;;;;3.05;1.52;;;10.90;99.90;;;;;;4893327;29;20423;-78
2021/12/25 13:27:19;;;;;;;5.03;1.92;;;10.90;99.90;;;;;;4886849;29;20037;-77
2021/12/25 13:29:44;;;;;;;3.45;1.80;;;10.80;99.90;;;;;;4898678;29;20025;-77
2021/12/25 13:32:10;;;;;;;2.88;1.70;;;10.70;99.90;;;;;;4913312;28;20266;-76
2021/12/25 13:34:39;;;;;;;4.38;1.80;;;10.60;99.90;;;;;;4904409;29;20041;-80
2021/12/25 13:37:24;;;;;;;3.22;1.90;;;10.40;99.90;;;;;;4885647;29;20039;-79
2021/12/25 13:39:49;;;;;;;3.15;1.60;;;10.30;99.90;;;;;;4901201;29;20068;-77
2021/12/25 13:42:16;;;;;;;3.63;1.70;;;10.20;99.90;;;;;;4886331;29;20037;-78
2021/12/25 13:44:45;;;;;;;3.45;2.05;;;10.20;99.90;;;;;;4885907;29;20029;-79
2021/12/25 13:47:14;;;;;;;3.90;1.80;;;10.10;99.90;;;;;;4902640;28;20041;-78
2021/12/25 13:50:03;;;;;;;3.08;1.77;;;10.10;99.90;;;;;;4904261;29;20203;-78
2021/12/25 13:52:34;;;;;;;3.25;1.90;;;10.10;99.90;;;;;;4902876;29;20033;-78
2021/12/25 13:55:02;;;;;;;4.25;2.25;;;10.00;99.90;;;;;;4904186;29;20040;-78
2021/12/25 13:57:30;;;;;;;4.15;1.92;;;10.00;99.90;;;;;;4902642;29;20079;-78
2021/12/25 14:00:00;;;;;;;3.90;2.20;;;10.00;99.90;;;;;;4918981;29;20107;-79
2021/12/25 14:02:29;;;;;;;4.18;2.30;;;10.00;99.90;;;;;;4903427;28;20045;-78
2021/12/25 14:04:56;;;;;;;4.25;2.25;;;10.00;99.90;;;;;;4901116;28;20044;-77
2021/12/25 14:07:28;;;;;;;5.15;2.83;;;10.00;99.90;;;;;;4902972;29;20040;-78
2021/12/25 14:10:04;;;;;;;4.10;2.50;;;10.00;99.90;;;;;;4907272;29;20032;-78
2021/12/25 14:12:34;;;;;;;5.90;2.40;;;10.10;99.90;;;;;;4905985;28;20219;-77
2021/12/25 14:15:00;;;;;;;6.25;2.67;;;10.00;99.90;;;;;;4906210;29;20029;-77
2021/12/25 14:17:31;;;;;;;5.50;2.95;;;10.10;99.90;;;;;;4905566;28;20058;-78
2021/12/25 14:20:21;;;;;;;5.70;3.50;;;10.10;99.90;;;;;;4906293;28;20072;-77
2021/12/25 14:22:50;;;;;;;5.90;3.72;;;10.10;99.90;;;;;;4907165;29;20040;-78
2021/12/25 14:25:20;;;;;;;6.30;3.20;;;10.10;99.90;;;;;;4906467;28;20068;-77
2021/12/25 14:28:07;;;;;;;6.15;3.50;;;10.10;99.90;;;;;;4902199;29;20519;-78
2021/12/25 14:30:37;;;;;;;5.10;2.97;;;10.00;99.90;;;;;;4887444;28;20037;-77
2021/12/25 14:33:03;;;;;;;5.47;2.97;;;10.10;99.90;;;;;;4887151;28;20188;-77
2021/12/25 14:35:29;;;;;;;5.80;2.97;;;10.00;99.90;;;;;;4887847;29;20041;-79
2021/12/25 14:37:59;;;;;;;6.22;3.28;;;10.10;99.90;;;;;;4888355;29;20059;-79
2021/12/25 14:40:29;;;;;;;7.57;4.20;;;10.10;99.90;;;;;;4888441;29;20037;-78
2021/12/25 14:43:08;;;;;;;8.25;3.60;;;10.10;99.90;;;;;;4888106;28;20056;-79
2021/12/25 14:45:52;;;;;;;8.02;4.03;;;10.10;99.90;;;;;;4901904;28;20037;-79
2021/12/25 14:48:31;;;;;;;6.35;3.97;;;10.10;99.90;;;;;;4901986;29;20047;-78
2021/12/25 14:51:01;;;;;;;8.98;5.38;;;10.00;99.90;;;;;;4905815;29;20275;-80
2021/12/25 14:53:28;;;;;;;9.30;5.30;;;9.90;99.90;;;;;;4907028;29;20040;-78
2021/12/25 14:56:01;;;;;;;10.98;5.88;;;9.80;99.90;;;;;;4906962;29;20235;-78
2021/12/25 14:58:36;;;;;;;9.63;6.03;;;9.70;99.90;;;;;;4905577;28;20239;-78